createdAt,value
2022-10-18T00:10:07.987Z,93.55
2022-10-18T00:25:50.314Z,93.49
2022-10-18T00:41:33.283Z,93.37
2022-10-18T00:57:16.027Z,92.76
2022-10-18T01:12:58.111Z,92.42
2022-10-18T01:28:40.272Z,92.56
2022-10-18T01:44:22.646Z,93.02
2022-10-18T02:00:05.596Z,94.01
2022-10-18T02:15:47.615Z,93.81
2022-10-18T02:31:29.800Z,94.28
2022-10-18T02:47:12.145Z,94.03
2022-10-18T03:02:54.147Z,94.54
2022-10-18T03:18:36.981Z,95.85
2022-10-18T03:34:19.347Z,97.68
2022-10-18T03:50:01.807Z,97.79
2022-10-18T04:05:44.769Z,97.92
2022-10-18T04:21:27.142Z,98.45
2022-10-18T04:37:09.859Z,98.36
2022-10-18T04:52:52.455Z,98.38
2022-10-18T05:08:34.648Z,99.62
2022-10-18T05:24:17.232Z,99.83
2022-10-18T05:39:59.288Z,100
2022-10-18T05:55:41.696Z,100
2022-10-18T06:11:24.452Z,100
2022-10-18T06:27:07.080Z,100
2022-10-18T06:42:49.513Z,100
2022-10-18T06:58:32.217Z,100
2022-10-18T07:14:14.642Z,100
2022-10-18T07:29:56.793Z,100
2022-10-18T07:45:38.897Z,100
2022-10-18T08:01:21.530Z,100
2022-10-18T08:17:04.146Z,100
2022-10-18T08:32:46.644Z,100
2022-10-18T08:48:29.398Z,100
2022-10-18T09:04:11.898Z,100
2022-10-18T09:19:54.751Z,100
2022-10-18T09:35:37.791Z,100
2022-10-18T09:51:20.692Z,100
2022-10-18T10:07:03.506Z,100
2022-10-18T10:22:45.671Z,100
2022-10-18T10:38:28.111Z,100
2022-10-18T10:54:10.519Z,100
2022-10-18T11:09:52.695Z,100
2022-10-18T11:25:35.574Z,100
2022-10-18T11:41:18.521Z,100
2022-10-18T11:57:01.147Z,100
2022-10-18T12:12:43.639Z,100
2022-10-18T12:28:26.348Z,100
2022-10-18T12:44:08.904Z,100
2022-10-18T12:44:56.228Z,100
2022-10-18T13:00:38.246Z,100
2022-10-18T13:16:20.491Z,100
2022-10-18T13:32:02.781Z,100
2022-10-18T13:47:45.786Z,100
2022-10-18T14:03:28.038Z,99.5
2022-10-18T14:19:10.244Z,94.94
2022-10-18T14:34:52.924Z,87.49
2022-10-18T14:50:35.601Z,87.29
2022-10-18T15:06:18.147Z,87.26
2022-10-18T15:22:00.538Z,89.49
2022-10-18T15:37:42.985Z,91.47
2022-10-18T15:53:25.796Z,93.52
2022-10-18T16:09:08.432Z,93.94
2022-10-18T16:24:50.749Z,94.69
2022-10-18T16:40:32.950Z,95.34
2022-10-18T16:56:15.116Z,96.12
2022-10-18T17:11:57.467Z,96.1
2022-10-18T17:27:39.671Z,95.73
2022-10-18T17:43:22.414Z,95.6
2022-10-18T17:59:05.250Z,95.65
2022-10-18T18:14:48.219Z,97.04
2022-10-18T18:30:30.916Z,96.02
2022-10-18T18:46:13.689Z,96.63
2022-10-18T19:01:55.791Z,98.11
2022-10-18T19:17:38.042Z,100
2022-10-18T19:33:20.685Z,100
2022-10-18T19:49:03.723Z,100
2022-10-18T20:04:45.914Z,100
2022-10-18T20:20:28.524Z,99.39
2022-10-18T20:36:11.037Z,99.03
2022-10-18T20:51:54.112Z,98.65
2022-10-18T21:07:36.266Z,98.35
2022-10-18T21:23:19.223Z,98.64
2022-10-18T21:39:02.082Z,98.63
2022-10-18T21:54:44.239Z,98.61
2022-10-18T22:10:27.054Z,97.78
2022-10-18T22:26:09.571Z,97.75
2022-10-18T22:41:52.318Z,97.31
2022-10-18T22:57:34.864Z,98.42
2022-10-18T23:13:17.365Z,99.41
2022-10-18T23:29:00.426Z,99.48
2022-10-18T23:44:42.718Z,99.29
